createdAt,value
2022-09-29T00:02:09.063Z,27.40
2022-09-29T00:04:39.455Z,26.35
2022-09-29T00:07:09.798Z,26.90
2022-09-29T00:09:39.882Z,24.13
2022-09-29T00:12:10.510Z,39.70
2022-09-29T00:14:42.753Z,25.33
2022-09-29T00:17:16.387Z,23.05
2022-09-29T00:19:46.887Z,21.90
2022-09-29T00:22:18.150Z,20.70
2022-09-29T00:24:50.418Z,19.98
2022-09-29T00:27:21.271Z,21.33
2022-09-29T00:29:51.848Z,20.38
2022-09-29T00:32:22.186Z,21.15
2022-09-29T00:34:52.613Z,20.85
2022-09-29T00:37:22.987Z,18.92
2022-09-29T00:39:53.399Z,15.88
2022-09-29T00:42:24.673Z,18.73
2022-09-29T00:45:02.538Z,14.32
2022-09-29T00:47:34.606Z,18.38
2022-09-29T00:50:09.380Z,18.30
2022-09-29T00:52:44.118Z,18.70
2022-09-29T00:55:34.191Z,18.00
2022-09-29T00:58:14.843Z,18.27
2022-09-29T01:00:45.445Z,19.45
2022-09-29T01:03:17.920Z,19.10
2022-09-29T01:05:52.047Z,17.95
2022-09-29T01:08:42.040Z,19.80
2022-09-29T01:11:14.082Z,26.10
2022-09-29T01:13:45.085Z,27.35
2022-09-29T01:16:15.254Z,24.48
2022-09-29T01:18:46.885Z,23.70
2022-09-29T01:21:36.610Z,16.38
2022-09-29T01:24:26.973Z,15.60
2022-09-29T01:27:16.693Z,16.67
2022-09-29T01:30:06.842Z,16.17
2022-09-29T01:32:56.729Z,14.88
2022-09-29T01:35:46.443Z,13.95
2022-09-29T01:38:31.532Z,14.13
2022-09-29T01:41:10.254Z,14.48
2022-09-29T01:44:00.377Z,13.05
2022-09-29T01:46:33.580Z,13.43
2022-09-29T01:49:05.195Z,13.40
2022-09-29T01:51:41.425Z,13.80
2022-09-29T01:54:17.961Z,14.32
2022-09-29T01:56:55.126Z,14.48
2022-09-29T01:59:30.880Z,13.82
2022-09-29T02:02:03.267Z,10.35
2022-09-29T02:04:40.632Z,9.95
2022-09-29T02:07:13.856Z,9.52
2022-09-29T02:09:46.707Z,10.70
2022-09-29T02:12:19.463Z,10.02
2022-09-29T02:14:50.792Z,10.93
2022-09-29T02:17:23.970Z,13.23
2022-09-29T02:19:54.777Z,15.52
2022-09-29T02:22:25.702Z,13.05
2022-09-29T02:24:58.312Z,15.23
2022-09-29T02:27:35.418Z,13.52
2022-09-29T02:30:07.866Z,11.82
2022-09-29T02:32:38.735Z,14.52
2022-09-29T02:35:10.890Z,14.05
2022-09-29T02:38:00.926Z,13.43
2022-09-29T02:40:52.690Z,12.25
2022-09-29T02:43:43.402Z,13.60
2022-09-29T02:46:24.888Z,41.00
2022-09-29T02:49:14.877Z,15.15
2022-09-29T02:51:49.666Z,12.10
2022-09-29T02:54:36.850Z,9.30
2022-09-29T02:57:27.042Z,8.30
2022-09-29T03:00:12.859Z,9.10
2022-09-29T03:02:44.008Z,9.20
2022-09-29T03:05:19.724Z,8.25
2022-09-29T03:07:50.206Z,7.95
2022-09-29T03:10:21.016Z,6.90
2022-09-29T03:12:51.447Z,7.35
2022-09-29T03:15:22.738Z,5.97
2022-09-29T03:17:53.491Z,5.50
2022-09-29T03:20:24.004Z,6.25
2022-09-29T03:22:57.948Z,5.13
2022-09-29T03:25:28.290Z,7.15
2022-09-29T03:27:58.754Z,6.13
2022-09-29T03:30:29.794Z,5.05
2022-09-29T03:33:00.394Z,5.38
2022-09-29T03:35:31.355Z,5.95
2022-09-29T03:38:02.882Z,5.50
2022-09-29T03:40:37.415Z,6.18
2022-09-29T03:43:07.956Z,6.63
2022-09-29T03:45:38.165Z,5.65
2022-09-29T03:48:08.677Z,10.80
2022-09-29T03:50:38.942Z,5.32
2022-09-29T03:53:10.397Z,4.50
2022-09-29T03:55:40.644Z,5.78
2022-09-29T03:58:11.060Z,5.63
2022-09-29T04:00:41.381Z,6.45
2022-09-29T04:03:11.638Z,9.13
2022-09-29T04:05:42.591Z,9.30
2022-09-29T04:08:13.233Z,12.00
2022-09-29T04:10:43.903Z,12.15
2022-09-29T04:13:19.005Z,10.75
2022-09-29T04:15:50.925Z,11.60
2022-09-29T04:18:21.117Z,12.07
2022-09-29T04:20:51.732Z,11.73
2022-09-29T04:23:22.173Z,20.80
2022-09-29T04:25:53.018Z,12.20
2022-09-29T04:28:23.221Z,29.20
2022-09-29T04:30:54.632Z,30.95
2022-09-29T04:33:24.821Z,21.73
2022-09-29T04:35:54.733Z,19.35
2022-09-29T04:38:24.924Z,21.40
2022-09-29T04:40:55.729Z,9.55
2022-09-29T04:43:26.388Z,9.15
2022-09-29T04:45:56.907Z,8.95
2022-09-29T04:48:27.169Z,9.18
2022-09-29T04:50:57.298Z,6.43
2022-09-29T04:53:27.512Z,5.75
2022-09-29T04:55:57.985Z,6.80
2022-09-29T04:58:28.219Z,5.50
2022-09-29T05:00:59.123Z,7.07
2022-09-29T05:03:30.169Z,6.63
2022-09-29T05:06:01.087Z,5.88
2022-09-29T05:08:31.589Z,5.95
2022-09-29T05:11:05.360Z,4.65
2022-09-29T05:13:36.272Z,5.70
2022-09-29T05:16:07.988Z,6.43
2022-09-29T05:18:38.610Z,5.85
2022-09-29T05:21:27.618Z,5.57
2022-09-29T05:23:59.358Z,5.22
2022-09-29T05:26:29.859Z,4.40
2022-09-29T05:29:00.201Z,4.10
2022-09-29T05:31:30.552Z,3.55
2022-09-29T05:34:01.576Z,3.75
2022-09-29T05:36:32.243Z,3.85
2022-09-29T05:39:03.127Z,3.50
2022-09-29T05:41:33.328Z,4.10
2022-09-29T05:44:03.857Z,4.30
2022-09-29T05:46:34.968Z,5.63
2022-09-29T05:49:05.982Z,5.65
2022-09-29T05:51:36.667Z,8.00
2022-09-29T05:54:07.568Z,10.40
2022-09-29T05:56:40.666Z,9.40
2022-09-29T05:59:13.624Z,8.75
2022-09-29T06:01:45.021Z,7.80
2022-09-29T06:04:15.169Z,7.95
2022-09-29T06:06:46.080Z,9.88
2022-09-29T06:09:16.801Z,9.18
2022-09-29T06:11:47.216Z,10.50
2022-09-29T06:14:17.688Z,10.48
2022-09-29T06:16:48.315Z,10.80
2022-09-29T06:19:19.453Z,12.93
2022-09-29T06:21:50.189Z,22.88
2022-09-29T06:24:20.824Z,13.65
2022-09-29T06:26:51.257Z,14.55
2022-09-29T06:29:22.284Z,13.80
2022-09-29T06:31:53.679Z,13.98
2022-09-29T06:34:24.129Z,13.60
2022-09-29T06:37:14.905Z,13.82
2022-09-29T06:39:46.007Z,13.18
2022-09-29T06:42:17.792Z,14.02
2022-09-29T06:44:48.384Z,23.27
2022-09-29T06:47:19.234Z,36.25
2022-09-29T06:49:55.606Z,16.15
2022-09-29T06:52:30.830Z,15.50
2022-09-29T06:55:01.497Z,17.80
2022-09-29T06:57:31.808Z,15.52
2022-09-29T07:00:01.891Z,15.05
2022-09-29T07:02:32.087Z,15.07
2022-09-29T07:05:02.666Z,15.38
2022-09-29T07:07:33.231Z,16.17
2022-09-29T07:10:03.393Z,16.48
2022-09-29T07:12:33.545Z,15.45
2022-09-29T07:15:04.203Z,15.27
2022-09-29T07:17:34.669Z,13.85
2022-09-29T07:20:05.370Z,13.00
2022-09-29T07:22:35.851Z,12.93
2022-09-29T07:25:06.552Z,11.10
2022-09-29T07:27:37.787Z,12.95
2022-09-29T07:30:08.834Z,11.00
2022-09-29T07:32:39.411Z,9.00
2022-09-29T07:35:09.790Z,8.20
2022-09-29T07:37:40.262Z,8.10
2022-09-29T07:40:10.602Z,8.45
2022-09-29T07:42:41.006Z,7.30
2022-09-29T07:45:11.953Z,8.57
2022-09-29T07:47:42.525Z,6.05
2022-09-29T07:50:13.112Z,6.95
2022-09-29T07:52:43.502Z,5.68
2022-09-29T07:55:13.890Z,6.10
2022-09-29T07:57:44.898Z,6.57
2022-09-29T08:00:15.775Z,6.20
2022-09-29T08:02:47.750Z,5.55
2022-09-29T08:05:19.554Z,5.25
2022-09-29T08:07:54.560Z,5.80
2022-09-29T08:10:25.151Z,5.10
2022-09-29T08:12:56.771Z,6.03
2022-09-29T08:15:27.704Z,7.10
2022-09-29T08:17:59.079Z,5.57
2022-09-29T08:20:29.700Z,7.65
2022-09-29T08:23:01.316Z,6.28
2022-09-29T08:25:32.048Z,6.13
2022-09-29T08:28:03.159Z,7.18
2022-09-29T08:30:33.633Z,7.90
2022-09-29T08:33:05.463Z,8.23
2022-09-29T08:35:35.922Z,9.10
2022-09-29T08:38:07.049Z,11.02
2022-09-29T08:40:38.453Z,13.63
2022-09-29T08:43:28.038Z,13.45
2022-09-29T08:46:33.540Z,14.30
2022-09-29T08:49:08.219Z,16.45
2022-09-29T08:51:43.178Z,14.52
2022-09-29T08:54:39.074Z,26.90
2022-09-29T08:57:16.882Z,19.52
2022-09-29T08:59:49.618Z,16.02
2022-09-29T09:02:39.613Z,18.58
2022-09-29T09:05:29.688Z,23.83
2022-09-29T09:08:06.960Z,16.88
2022-09-29T09:10:49.090Z,30.60
2022-09-29T09:13:38.755Z,16.52
2022-09-29T09:16:28.910Z,16.42
2022-09-29T09:19:06.926Z,16.98
2022-09-29T09:21:43.600Z,17.10
2022-09-29T09:24:22.709Z,16.40
2022-09-29T09:26:55.007Z,18.77
2022-09-29T09:29:37.901Z,16.58
2022-09-29T09:32:27.818Z,16.13
2022-09-29T09:35:16.956Z,16.45
2022-09-29T09:37:51.388Z,16.15
2022-09-29T09:40:29.272Z,16.23
2022-09-29T09:43:12.495Z,17.58
2022-09-29T09:46:02.656Z,16.30
2022-09-29T09:48:35.893Z,16.73
2022-09-29T09:51:26.419Z,21.98
2022-09-29T09:53:59.413Z,21.77
2022-09-29T09:56:49.292Z,21.58
2022-09-29T09:59:39.406Z,24.00
2022-09-29T10:02:18.656Z,17.92
2022-09-29T10:04:51.542Z,17.45
2022-09-29T10:07:26.740Z,17.98
2022-09-29T10:09:58.619Z,17.83
2022-09-29T10:12:29.192Z,18.77
2022-09-29T10:15:07.318Z,52.55
2022-09-29T10:17:47.044Z,19.55
2022-09-29T10:20:31.560Z,28.13
2022-09-29T10:23:21.315Z,24.83
2022-09-29T10:26:02.280Z,18.15
2022-09-29T10:28:52.394Z,22.08
2022-09-29T10:31:42.423Z,19.20
2022-09-29T10:34:19.457Z,18.50
2022-09-29T10:36:55.557Z,19.73
2022-09-29T10:39:45.677Z,19.75
2022-09-29T10:42:22.976Z,19.38
2022-09-29T10:44:54.763Z,18.05
2022-09-29T10:47:25.760Z,17.52
2022-09-29T10:50:16.062Z,17.55
2022-09-29T10:52:47.922Z,17.27
2022-09-29T10:55:20.710Z,17.15
2022-09-29T10:57:51.256Z,24.90
2022-09-29T11:00:28.967Z,25.48
2022-09-29T11:03:10.347Z,34.10
2022-09-29T11:05:41.327Z,27.52
2022-09-29T11:08:15.093Z,27.80
2022-09-29T11:10:45.747Z,26.23
2022-09-29T11:13:36.195Z,25.92
2022-09-29T11:16:08.397Z,23.55
2022-09-29T11:18:41.114Z,18.48
2022-09-29T11:21:25.286Z,17.17
2022-09-29T11:24:15.070Z,17.65
2022-09-29T11:26:58.994Z,19.50
2022-09-29T11:29:48.767Z,18.60
2022-09-29T11:32:34.546Z,24.48
2022-09-29T11:35:24.397Z,18.70
2022-09-29T11:38:15.307Z,25.15
2022-09-29T11:40:53.569Z,18.73
2022-09-29T11:43:37.386Z,19.30
2022-09-29T11:46:25.836Z,18.20
2022-09-29T11:49:16.337Z,18.83
2022-09-29T11:52:06.984Z,19.52
2022-09-29T11:54:58.985Z,24.83
2022-09-29T11:57:39.260Z,32.70
2022-09-29T12:00:15.202Z,26.80
2022-09-29T12:03:06.427Z,34.42
2022-09-29T12:05:56.315Z,24.38
2022-09-29T12:08:46.027Z,23.02
2022-09-29T12:11:44.353Z,22.42
2022-09-29T12:14:31.341Z,19.95
2022-09-29T12:17:04.464Z,20.15
2022-09-29T12:19:39.752Z,19.50
2022-09-29T12:22:16.051Z,19.98
2022-09-29T12:24:49.694Z,22.80
2022-09-29T12:27:28.760Z,21.52
2022-09-29T12:30:07.589Z,21.38
2022-09-29T12:32:44.637Z,21.33
2022-09-29T12:35:20.442Z,22.13
2022-09-29T12:38:10.767Z,22.35
2022-09-29T12:41:00.909Z,19.88
2022-09-29T12:43:51.005Z,23.67
2022-09-29T12:46:39.626Z,21.13
2022-09-29T12:49:29.991Z,21.55
2022-09-29T12:52:00.702Z,23.10
2022-09-29T12:54:46.558Z,21.67
2022-09-29T12:57:29.045Z,23.38
2022-09-29T13:00:10.476Z,21.33
2022-09-29T13:02:57.821Z,20.88
2022-09-29T13:05:47.533Z,21.63
2022-09-29T13:08:41.524Z,21.83
2022-09-29T13:11:31.575Z,20.17
2022-09-29T13:14:15.454Z,20.20
2022-09-29T13:17:05.883Z,20.80
2022-09-29T13:19:59.199Z,19.55
2022-09-29T13:22:44.321Z,21.58
2022-09-29T13:25:33.987Z,20.35
2022-09-29T13:28:05.146Z,24.23
2022-09-29T13:30:38.077Z,20.55
2022-09-29T13:33:13.205Z,20.90
2022-09-29T13:35:45.682Z,19.88
2022-09-29T13:38:21.136Z,18.00
2022-09-29T13:41:11.326Z,18.17
2022-09-29T13:43:43.522Z,18.35
2022-09-29T13:46:33.564Z,17.73
2022-09-29T13:49:15.717Z,18.20
2022-09-29T13:51:51.806Z,18.08
2022-09-29T13:54:41.623Z,19.98
2022-09-29T13:57:27.709Z,20.23
2022-09-29T14:00:09.131Z,20.45
2022-09-29T14:02:50.546Z,20.92
2022-09-29T14:05:40.517Z,19.48
2022-09-29T14:08:22.488Z,19.05
2022-09-29T14:11:12.908Z,19.33
2022-09-29T14:13:47.390Z,19.05
2022-09-29T14:16:27.569Z,19.27
2022-09-29T14:19:17.420Z,20.00
2022-09-29T14:21:50.192Z,19.73
2022-09-29T14:24:43.789Z,28.55
2022-09-29T14:27:24.749Z,17.63
2022-09-29T14:29:58.168Z,17.75
2022-09-29T14:32:49.389Z,18.25
2022-09-29T14:35:39.025Z,17.20
2022-09-29T14:38:17.415Z,21.92
2022-09-29T14:41:07.635Z,17.73
2022-09-29T14:43:57.951Z,17.27
2022-09-29T14:47:07.749Z,16.73
2022-09-29T14:50:01.375Z,17.55
2022-09-29T14:52:37.407Z,17.15
2022-09-29T14:55:27.132Z,41.58
2022-09-29T14:58:11.201Z,20.27
2022-09-29T15:00:50.095Z,19.95
2022-09-29T15:03:30.029Z,17.90
2022-09-29T15:06:08.344Z,18.67
2022-09-29T15:08:41.374Z,20.73
2022-09-29T15:11:30.909Z,19.35
2022-09-29T15:14:02.966Z,19.67
2022-09-29T15:16:37.480Z,18.17
2022-09-29T15:19:27.394Z,19.27
2022-09-29T15:22:17.626Z,19.58
2022-09-29T15:24:54.155Z,22.48
2022-09-29T15:27:25.104Z,19.08
2022-09-29T15:29:58.243Z,19.05
2022-09-29T15:32:33.763Z,17.92
2022-09-29T15:35:08.880Z,18.75
2022-09-29T15:37:58.659Z,17.77
2022-09-29T15:40:29.858Z,17.92
2022-09-29T15:43:01.027Z,17.92
2022-09-29T15:45:32.049Z,16.55
2022-09-29T15:48:09.746Z,18.40
2022-09-29T15:50:44.891Z,17.95
2022-09-29T15:53:15.512Z,17.55
2022-09-29T15:55:46.074Z,18.50
2022-09-29T15:58:38.427Z,17.05
2022-09-29T16:01:10.081Z,17.67
2022-09-29T16:04:00.340Z,17.10
2022-09-29T16:06:33.383Z,18.00
2022-09-29T16:09:05.525Z,17.13
2022-09-29T16:11:37.946Z,29.65
2022-09-29T16:14:13.673Z,17.65
2022-09-29T16:16:45.853Z,18.13
2022-09-29T16:19:23.402Z,16.55
2022-09-29T16:21:55.536Z,16.25
2022-09-29T16:24:27.270Z,17.65
2022-09-29T16:26:58.491Z,17.05
2022-09-29T16:29:38.676Z,15.35
2022-09-29T16:32:28.733Z,16.90
2022-09-29T16:35:19.960Z,15.88
2022-09-29T16:37:51.667Z,17.52
2022-09-29T16:40:26.277Z,17.42
2022-09-29T16:42:57.421Z,17.55
2022-09-29T16:45:28.399Z,17.15
2022-09-29T16:47:59.029Z,17.17
2022-09-29T16:50:29.170Z,18.60
2022-09-29T16:52:59.672Z,18.45
2022-09-29T16:55:30.854Z,19.25
2022-09-29T16:58:10.276Z,18.33
2022-09-29T17:00:40.930Z,17.67
2022-09-29T17:03:12.282Z,25.63
2022-09-29T17:05:48.900Z,27.20
2022-09-29T17:08:23.970Z,19.98
2022-09-29T17:10:55.118Z,20.42
2022-09-29T17:13:26.586Z,18.83
2022-09-29T17:15:57.347Z,19.25
2022-09-29T17:18:28.661Z,17.50
2022-09-29T17:20:58.765Z,21.45
2022-09-29T17:23:28.905Z,42.65
2022-09-29T17:26:18.996Z,27.63
2022-09-29T17:28:49.604Z,20.90
2022-09-29T17:31:20.887Z,19.08
2022-09-29T17:33:51.111Z,19.17
2022-09-29T17:36:23.271Z,19.73
2022-09-29T17:38:54.660Z,19.15
2022-09-29T17:41:25.315Z,19.63
2022-09-29T17:43:56.190Z,18.23
2022-09-29T17:46:26.827Z,18.10
2022-09-29T17:48:57.234Z,18.92
2022-09-29T17:51:27.812Z,18.77
2022-09-29T17:53:57.919Z,18.15
2022-09-29T17:56:30.017Z,17.98
2022-09-29T17:59:04.536Z,17.58
2022-09-29T18:01:36.074Z,16.88
2022-09-29T18:04:07.389Z,16.77
2022-09-29T18:06:39.529Z,17.45
2022-09-29T18:09:20.116Z,18.65
2022-09-29T18:11:50.574Z,17.95
2022-09-29T18:14:21.098Z,18.50
2022-09-29T18:16:51.997Z,17.77
2022-09-29T18:19:22.965Z,17.98
2022-09-29T18:21:53.726Z,17.75
2022-09-29T18:24:24.153Z,17.15
2022-09-29T18:26:54.839Z,16.65
2022-09-29T18:29:25.480Z,17.10
2022-09-29T18:31:56.205Z,17.00
2022-09-29T18:34:28.372Z,18.55
2022-09-29T18:36:59.194Z,19.27
2022-09-29T18:39:29.695Z,17.98
2022-09-29T18:42:00.605Z,17.83
2022-09-29T18:44:34.917Z,16.60
2022-09-29T18:47:05.374Z,16.90
2022-09-29T18:49:35.940Z,15.95
2022-09-29T18:52:06.850Z,15.88
2022-09-29T18:54:37.929Z,16.73
2022-09-29T18:57:08.704Z,16.38
2022-09-29T18:59:39.366Z,16.45
2022-09-29T19:02:14.760Z,16.58
2022-09-29T19:04:45.689Z,16.52
2022-09-29T19:07:15.914Z,16.27
2022-09-29T19:09:46.754Z,16.85
2022-09-29T19:12:17.427Z,16.83
2022-09-29T19:14:49.301Z,16.95
2022-09-29T19:17:19.638Z,17.42
2022-09-29T19:19:50.862Z,17.83
2022-09-29T19:22:21.198Z,17.38
2022-09-29T19:24:51.485Z,18.08
2022-09-29T19:27:22.596Z,18.65
2022-09-29T19:29:59.622Z,18.17
2022-09-29T19:32:32.569Z,18.73
2022-09-29T19:35:02.719Z,18.48
2022-09-29T19:37:33.284Z,18.52
2022-09-29T19:40:04.791Z,18.75
2022-09-29T19:42:35.154Z,18.42
2022-09-29T19:45:06.862Z,18.42
2022-09-29T19:47:38.946Z,18.60
2022-09-29T19:50:30.362Z,18.63
2022-09-29T19:53:00.676Z,18.83
2022-09-29T19:55:30.841Z,18.90
2022-09-29T19:58:01.319Z,22.10
2022-09-29T20:00:31.528Z,25.35
2022-09-29T20:03:02.022Z,27.30
2022-09-29T20:05:32.160Z,30.08
2022-09-29T20:08:03.551Z,29.85
2022-09-29T20:10:33.678Z,30.73
2022-09-29T20:13:04.955Z,32.30
2022-09-29T20:15:36.177Z,33.10
2022-09-29T20:18:07.055Z,34.05
2022-09-29T20:20:38.684Z,33.58
2022-09-29T20:23:09.454Z,33.25
2022-09-29T20:25:39.769Z,36.03
2022-09-29T20:28:14.500Z,33.88
2022-09-29T20:30:45.741Z,34.22
2022-09-29T20:33:16.263Z,35.45
2022-09-29T20:35:47.095Z,33.75
2022-09-29T20:38:17.662Z,33.47
2022-09-29T20:40:48.691Z,34.20
2022-09-29T20:43:18.809Z,34.92
2022-09-29T20:45:49.110Z,33.17
2022-09-29T20:48:19.525Z,33.90
2022-09-29T20:50:50.641Z,32.22
2022-09-29T20:53:22.665Z,31.08
2022-09-29T20:56:02.453Z,31.80
2022-09-29T20:58:33.167Z,33.10
2022-09-29T21:01:19.400Z,31.05
2022-09-29T21:03:53.779Z,31.08
2022-09-29T21:06:25.049Z,30.45
2022-09-29T21:08:56.229Z,30.85
2022-09-29T21:11:27.004Z,29.77
2022-09-29T21:14:01.411Z,29.38
2022-09-29T21:16:32.111Z,27.92
2022-09-29T21:19:02.223Z,27.55
2022-09-29T21:21:33.095Z,29.52
2022-09-29T21:24:04.838Z,27.48
2022-09-29T21:26:35.281Z,28.17
2022-09-29T21:29:06.027Z,28.50
2022-09-29T21:31:37.244Z,28.95
2022-09-29T21:34:09.699Z,28.58
2022-09-29T21:36:41.628Z,28.33
2022-09-29T21:39:12.006Z,28.90
2022-09-29T21:41:43.998Z,29.20
2022-09-29T21:44:17.058Z,30.25
2022-09-29T21:46:47.731Z,30.23
2022-09-29T21:49:20.714Z,28.38
2022-09-29T21:51:52.138Z,30.23
2022-09-29T21:54:24.218Z,31.58
2022-09-29T21:56:55.429Z,32.50
2022-09-29T21:59:26.004Z,29.27
2022-09-29T22:01:56.201Z,29.77
2022-09-29T22:04:26.450Z,29.30
2022-09-29T22:06:56.989Z,30.20
2022-09-29T22:09:27.251Z,30.88
2022-09-29T22:11:57.787Z,30.52
2022-09-29T22:14:28.089Z,31.23
2022-09-29T22:16:58.150Z,30.10
2022-09-29T22:19:28.356Z,30.00
2022-09-29T22:21:58.479Z,30.65
2022-09-29T22:24:29.809Z,30.98
2022-09-29T22:27:00.182Z,33.17
2022-09-29T22:29:30.975Z,32.10
2022-09-29T22:32:01.935Z,31.40
2022-09-29T22:34:32.639Z,32.78
2022-09-29T22:37:03.688Z,32.05
2022-09-29T22:39:34.439Z,31.50
2022-09-29T22:42:04.619Z,32.00
2022-09-29T22:44:35.264Z,33.72
2022-09-29T22:47:07.024Z,32.85
2022-09-29T22:49:37.227Z,34.47
2022-09-29T22:52:07.681Z,32.83
2022-09-29T22:54:38.007Z,33.10
2022-09-29T22:57:08.646Z,33.15
2022-09-29T22:59:42.469Z,33.88
2022-09-29T23:02:13.988Z,34.03
2022-09-29T23:04:44.525Z,35.10
2022-09-29T23:07:15.121Z,34.67
2022-09-29T23:09:45.319Z,37.22
2022-09-29T23:12:15.529Z,36.50
2022-09-29T23:14:46.207Z,38.88
2022-09-29T23:17:16.865Z,34.20
2022-09-29T23:19:47.538Z,32.90
2022-09-29T23:22:17.672Z,34.67
2022-09-29T23:24:47.549Z,34.72
2022-09-29T23:27:17.682Z,35.67
2022-09-29T23:29:48.304Z,34.95
2022-09-29T23:32:20.450Z,34.38
2022-09-29T23:34:50.660Z,34.85
2022-09-29T23:37:21.154Z,35.03
2022-09-29T23:39:51.727Z,33.80
2022-09-29T23:42:22.125Z,36.00
2022-09-29T23:44:52.277Z,35.80
2022-09-29T23:47:22.412Z,33.25
2022-09-29T23:49:52.311Z,50.78
2022-09-29T23:52:23.751Z,33.67
2022-09-29T23:54:54.400Z,33.10
2022-09-29T23:57:26.448Z,34.60
2022-09-29T23:59:57.033Z,33.22
